sensor_id;sensor_type;location;lat;lon;timestamp;temperature;humidity
71047;SHT31;58703;48.978;8.982;2023-01-01T00:00:45;7.93;98.93
71047;SHT31;58703;48.978;8.982;2023-01-01T00:03:11;8.05;98.26
71047;SHT31;58703;48.978;8.982;2023-01-01T00:05:37;7.91;98.32
71047;SHT31;58703;48.978;8.982;2023-01-01T00:08:03;7.86;98.19
71047;SHT31;58703;48.978;8.982;2023-01-01T00:10:29;7.93;98.82
71047;SHT31;58703;48.978;8.982;2023-01-01T00:12:55;8.02;98.51
71047;SHT31;58703;48.978;8.982;2023-01-01T00:15:21;7.93;98.15
71047;SHT31;58703;48.978;8.982;2023-01-01T00:17:47;7.86;98.50
71047;SHT31;58703;48.978;8.982;2023-01-01T00:20:13;7.79;98.87
71047;SHT31;58703;48.978;8.982;2023-01-01T00:22:39;7.89;98.53
71047;SHT31;58703;48.978;8.982;2023-01-01T00:25:05;7.71;98.39
71047;SHT31;58703;48.978;8.982;2023-01-01T00:27:31;7.67;98.62
71047;SHT31;58703;48.978;8.982;2023-01-01T00:29:57;7.64;98.83
71047;SHT31;58703;48.978;8.982;2023-01-01T00:32:23;7.64;99.32
71047;SHT31;58703;48.978;8.982;2023-01-01T00:34:48;7.64;99.08
71047;SHT31;58703;48.978;8.982;2023-01-01T00:37:14;7.68;99.07
71047;SHT31;58703;48.978;8.982;2023-01-01T00:39:43;7.62;99.21
71047;SHT31;58703;48.978;8.982;2023-01-01T00:42:09;7.57;99.07
71047;SHT31;58703;48.978;8.982;2023-01-01T00:44:35;7.50;99.33
71047;SHT31;58703;48.978;8.982;2023-01-01T00:47:00;7.43;99.58
71047;SHT31;58703;48.978;8.982;2023-01-01T00:49:26;7.43;99.21
71047;SHT31;58703;48.978;8.982;2023-01-01T00:51:53;7.30;99.79
71047;SHT31;58703;48.978;8.982;2023-01-01T00:54:18;7.23;99.94
71047;SHT31;58703;48.978;8.982;2023-01-01T00:56:44;7.30;99.99
71047;SHT31;58703;48.978;8.982;2023-01-01T00:59:10;7.47;99.99
71047;SHT31;58703;48.978;8.982;2023-01-01T01:01:37;7.50;99.97
71047;SHT31;58703;48.978;8.982;2023-01-01T01:04:04;7.37;99.54
71047;SHT31;58703;48.978;8.982;2023-01-01T01:06:29;7.37;99.67
71047;SHT31;58703;48.978;8.982;2023-01-01T01:08:55;7.30;99.60
71047;SHT31;58703;48.978;8.982;2023-01-01T01:11:22;7.32;99.47
71047;SHT31;58703;48.978;8.982;2023-01-01T01:13:53;7.28;98.98
71047;SHT31;58703;48.978;8.982;2023-01-01T01:16:20;7.21;99.35
71047;SHT31;58703;48.978;8.982;2023-01-01T01:18:49;7.23;99.32
71047;SHT31;58703;48.978;8.982;2023-01-01T01:21:18;7.20;99.39
71047;SHT31;58703;48.978;8.982;2023-01-01T01:23:43;7.24;99.59
71047;SHT31;58703;48.978;8.982;2023-01-01T01:26:14;7.24;99.41
71047;SHT31;58703;48.978;8.982;2023-01-01T01:28:41;7.31;99.55
71047;SHT31;58703;48.978;8.982;2023-01-01T01:31:07;7.34;99.46
71047;SHT31;58703;48.978;8.982;2023-01-01T01:33:33;7.59;99.25
71047;SHT31;58703;48.978;8.982;2023-01-01T01:36:02;7.72;98.97
71047;SHT31;58703;48.978;8.982;2023-01-01T01:38:28;7.62;98.85
71047;SHT31;58703;48.978;8.982;2023-01-01T01:40:54;7.54;98.93
71047;SHT31;58703;48.978;8.982;2023-01-01T01:46:21;7.43;99.08
71047;SHT31;58703;48.978;8.982;2023-01-01T01:48:50;7.38;99.23
71047;SHT31;58703;48.978;8.982;2023-01-01T01:51:28;7.18;99.25
71047;SHT31;58703;48.978;8.982;2023-01-01T01:54:00;7.07;99.22
71047;SHT31;58703;48.978;8.982;2023-01-01T01:56:50;7.07;99.70
71047;SHT31;58703;48.978;8.982;2023-01-01T01:59:18;6.92;99.68
71047;SHT31;58703;48.978;8.982;2023-01-01T02:01:45;6.83;99.88
71047;SHT31;58703;48.978;8.982;2023-01-01T02:04:11;6.99;99.99
71047;SHT31;58703;48.978;8.982;2023-01-01T02:06:37;6.99;99.99
71047;SHT31;58703;48.978;8.982;2023-01-01T02:09:07;7.11;99.99
71047;SHT31;58703;48.978;8.982;2023-01-01T02:11:33;7.04;99.99
71047;SHT31;58703;48.978;8.982;2023-01-01T02:14:01;7.07;99.99
71047;SHT31;58703;48.978;8.982;2023-01-01T02:16:50;7.04;99.54
71047;SHT31;58703;48.978;8.982;2023-01-01T02:22:33;6.85;99.08
71047;SHT31;58703;48.978;8.982;2023-01-01T02:28:03;6.32;99.78
71047;SHT31;58703;48.978;8.982;2023-01-01T02:30:31;6.17;99.94
71047;SHT31;58703;48.978;8.982;2023-01-01T02:33:06;6.22;99.99
71047;SHT31;58703;48.978;8.982;2023-01-01T02:35:37;6.11;99.99
71047;SHT31;58703;48.978;8.982;2023-01-01T02:40:39;6.01;99.99
71047;SHT31;58703;48.978;8.982;2023-01-01T02:43:07;6.04;99.99
71047;SHT31;58703;48.978;8.982;2023-01-01T02:45:32;6.01;99.99
71047;SHT31;58703;48.978;8.982;2023-01-01T02:48:06;5.98;99.99
71047;SHT31;58703;48.978;8.982;2023-01-01T02:50:51;5.94;99.99
71047;SHT31;58703;48.978;8.982;2023-01-01T02:53:36;5.84;99.99
71047;SHT31;58703;48.978;8.982;2023-01-01T02:56:15;5.90;99.99
71047;SHT31;58703;48.978;8.982;2023-01-01T02:58:48;6.05;99.99
71047;SHT31;58703;48.978;8.982;2023-01-01T03:01:52;6.42;99.99
71047;SHT31;58703;48.978;8.982;2023-01-01T03:04:28;6.52;99.99
71047;SHT31;58703;48.978;8.982;2023-01-01T03:07:09;6.82;99.61
71047;SHT31;58703;48.978;8.982;2023-01-01T03:09:47;6.95;99.08
71047;SHT31;58703;48.978;8.982;2023-01-01T03:12:30;7.14;98.84
71047;SHT31;58703;48.978;8.982;2023-01-01T03:15:11;7.13;98.33
71047;SHT31;58703;48.978;8.982;2023-01-01T03:17:46;7.23;98.37
71047;SHT31;58703;48.978;8.982;2023-01-01T03:20:21;7.07;98.05
71047;SHT31;58703;48.978;8.982;2023-01-01T03:22:50;6.92;97.97
71047;SHT31;58703;48.978;8.982;2023-01-01T03:25:23;6.65;97.66
71047;SHT31;58703;48.978;8.982;2023-01-01T03:27:57;6.52;98.70
71047;SHT31;58703;48.978;8.982;2023-01-01T03:30:24;6.35;98.89
71047;SHT31;58703;48.978;8.982;2023-01-01T03:32:57;6.21;99.59
71047;SHT31;58703;48.978;8.982;2023-01-01T03:35:44;6.32;99.89
71047;SHT31;58703;48.978;8.982;2023-01-01T03:41:09;6.39;99.99
71047;SHT31;58703;48.978;8.982;2023-01-01T03:46:39;6.80;99.40
71047;SHT31;58703;48.978;8.982;2023-01-01T03:49:07;6.50;98.85
71047;SHT31;58703;48.978;8.982;2023-01-01T03:54:07;6.46;99.33
71047;SHT31;58703;48.978;8.982;2023-01-01T03:56:43;6.46;98.73
71047;SHT31;58703;48.978;8.982;2023-01-01T03:59:15;6.59;99.02
71047;SHT31;58703;48.978;8.982;2023-01-01T04:01:48;6.93;98.32
71047;SHT31;58703;48.978;8.982;2023-01-01T04:04:15;7.16;98.16
71047;SHT31;58703;48.978;8.982;2023-01-01T04:06:41;7.30;98.49
71047;SHT31;58703;48.978;8.982;2023-01-01T04:09:11;7.10;97.85
71047;SHT31;58703;48.978;8.982;2023-01-01T04:11:41;7.30;96.83
71047;SHT31;58703;48.978;8.982;2023-01-01T04:16:58;7.65;96.41
71047;SHT31;58703;48.978;8.982;2023-01-01T04:19:23;7.31;96.05
71047;SHT31;58703;48.978;8.982;2023-01-01T04:21:49;7.51;97.65
71047;SHT31;58703;48.978;8.982;2023-01-01T04:24:15;7.64;95.96
71047;SHT31;58703;48.978;8.982;2023-01-01T04:26:41;7.32;94.92
71047;SHT31;58703;48.978;8.982;2023-01-01T04:29:07;7.32;95.89
71047;SHT31;58703;48.978;8.982;2023-01-01T04:31:33;7.31;95.40
71047;SHT31;58703;48.978;8.982;2023-01-01T04:33:59;7.62;96.33
71047;SHT31;58703;48.978;8.982;2023-01-01T04:36:25;7.52;94.93
71047;SHT31;58703;48.978;8.982;2023-01-01T04:38:50;7.81;95.51
71047;SHT31;58703;48.978;8.982;2023-01-01T04:41:16;8.07;94.34
71047;SHT31;58703;48.978;8.982;2023-01-01T04:43:45;8.36;93.27
71047;SHT31;58703;48.978;8.982;2023-01-01T04:46:16;8.32;92.97
71047;SHT31;58703;48.978;8.982;2023-01-01T04:48:42;8.40;92.93
71047;SHT31;58703;48.978;8.982;2023-01-01T04:51:10;8.46;92.86
71047;SHT31;58703;48.978;8.982;2023-01-01T04:53:36;9.40;90.58
71047;SHT31;58703;48.978;8.982;2023-01-01T04:56:10;8.70;90.91
71047;SHT31;58703;48.978;8.982;2023-01-01T04:58:38;9.05;90.28
71047;SHT31;58703;48.978;8.982;2023-01-01T05:01:04;9.10;89.96
71047;SHT31;58703;48.978;8.982;2023-01-01T05:03:30;8.98;90.60
71047;SHT31;58703;48.978;8.982;2023-01-01T05:06:07;8.92;90.26
71047;SHT31;58703;48.978;8.982;2023-01-01T05:08:35;8.64;90.89
71047;SHT31;58703;48.978;8.982;2023-01-01T05:11:06;8.85;91.65
71047;SHT31;58703;48.978;8.982;2023-01-01T05:13:33;9.10;90.42
71047;SHT31;58703;48.978;8.982;2023-01-01T05:16:04;9.19;89.61
71047;SHT31;58703;48.978;8.982;2023-01-01T05:18:30;9.08;90.26
71047;SHT31;58703;48.978;8.982;2023-01-01T05:21:03;9.10;89.00
71047;SHT31;58703;48.978;8.982;2023-01-01T05:23:29;8.85;90.17
71047;SHT31;58703;48.978;8.982;2023-01-01T05:25:57;8.74;90.94
71047;SHT31;58703;48.978;8.982;2023-01-01T05:28:23;8.26;91.37
71047;SHT31;58703;48.978;8.982;2023-01-01T05:30:50;8.22;92.33
71047;SHT31;58703;48.978;8.982;2023-01-01T05:33:16;8.52;91.70
71047;SHT31;58703;48.978;8.982;2023-01-01T05:35:41;8.46;90.76
71047;SHT31;58703;48.978;8.982;2023-01-01T05:38:07;8.03;91.94
71047;SHT31;58703;48.978;8.982;2023-01-01T05:40:33;7.69;93.07
71047;SHT31;58703;48.978;8.982;2023-01-01T05:42:59;7.48;94.77
71047;SHT31;58703;48.978;8.982;2023-01-01T05:45:25;7.32;94.87
71047;SHT31;58703;48.978;8.982;2023-01-01T05:47:50;7.27;95.08
71047;SHT31;58703;48.978;8.982;2023-01-01T05:50:16;7.31;95.73
71047;SHT31;58703;48.978;8.982;2023-01-01T05:52:42;7.13;95.37
71047;SHT31;58703;48.978;8.982;2023-01-01T05:55:07;7.08;95.81
71047;SHT31;58703;48.978;8.982;2023-01-01T05:57:33;7.18;95.93
71047;SHT31;58703;48.978;8.982;2023-01-01T05:59:59;7.20;95.35
71047;SHT31;58703;48.978;8.982;2023-01-01T06:02:24;6.92;96.04
71047;SHT31;58703;48.978;8.982;2023-01-01T06:04:50;6.83;96.50
71047;SHT31;58703;48.978;8.982;2023-01-01T06:07:15;6.69;96.56
71047;SHT31;58703;48.978;8.982;2023-01-01T06:09:41;6.62;96.80
71047;SHT31;58703;48.978;8.982;2023-01-01T06:12:07;6.61;97.47
71047;SHT31;58703;48.978;8.982;2023-01-01T06:14:33;6.77;97.78
71047;SHT31;58703;48.978;8.982;2023-01-01T06:16:59;6.75;97.09
71047;SHT31;58703;48.978;8.982;2023-01-01T06:19:25;6.53;96.99
71047;SHT31;58703;48.978;8.982;2023-01-01T06:21:51;6.53;97.70
71047;SHT31;58703;48.978;8.982;2023-01-01T06:24:17;6.38;97.79
71047;SHT31;58703;48.978;8.982;2023-01-01T06:26:43;6.41;98.28
71047;SHT31;58703;48.978;8.982;2023-01-01T06:29:10;6.35;98.03
71047;SHT31;58703;48.978;8.982;2023-01-01T06:31:36;6.69;97.63
71047;SHT31;58703;48.978;8.982;2023-01-01T06:34:03;6.99;98.06
71047;SHT31;58703;48.978;8.982;2023-01-01T06:36:29;7.23;95.71
71047;SHT31;58703;48.978;8.982;2023-01-01T06:38:55;7.47;96.15
71047;SHT31;58703;48.978;8.982;2023-01-01T06:41:24;7.52;95.01
71047;SHT31;58703;48.978;8.982;2023-01-01T06:43:50;7.89;95.00
71047;SHT31;58703;48.978;8.982;2023-01-01T06:48:45;8.54;92.00
71047;SHT31;58703;48.978;8.982;2023-01-01T06:51:13;8.13;91.85
71047;SHT31;58703;48.978;8.982;2023-01-01T06:53:39;8.12;93.47
71047;SHT31;58703;48.978;8.982;2023-01-01T06:56:06;8.14;92.31
71047;SHT31;58703;48.978;8.982;2023-01-01T06:58:32;8.05;92.26
71047;SHT31;58703;48.978;8.982;2023-01-01T07:01:15;8.01;93.38
71047;SHT31;58703;48.978;8.982;2023-01-01T07:03:41;8.70;92.19
71047;SHT31;58703;48.978;8.982;2023-01-01T07:06:08;9.04;90.84
71047;SHT31;58703;48.978;8.982;2023-01-01T07:08:34;9.32;89.81
71047;SHT31;58703;48.978;8.982;2023-01-01T07:11:00;9.42;89.51
71047;SHT31;58703;48.978;8.982;2023-01-01T07:13:27;9.48;89.23
71047;SHT31;58703;48.978;8.982;2023-01-01T07:15:54;9.50;88.88
71047;SHT31;58703;48.978;8.982;2023-01-01T07:18:22;9.48;88.79
71047;SHT31;58703;48.978;8.982;2023-01-01T07:20:50;9.24;87.17
71047;SHT31;58703;48.978;8.982;2023-01-01T07:23:16;8.98;89.55
71047;SHT31;58703;48.978;8.982;2023-01-01T07:25:42;8.95;90.81
71047;SHT31;58703;48.978;8.982;2023-01-01T07:28:08;8.95;90.34
71047;SHT31;58703;48.978;8.982;2023-01-01T07:30:33;8.85;90.25
71047;SHT31;58703;48.978;8.982;2023-01-01T07:32:59;9.36;90.13
71047;SHT31;58703;48.978;8.982;2023-01-01T07:35:25;10.18;87.68
71047;SHT31;58703;48.978;8.982;2023-01-01T07:37:52;10.17;86.75
71047;SHT31;58703;48.978;8.982;2023-01-01T07:40:18;9.80;87.18
71047;SHT31;58703;48.978;8.982;2023-01-01T07:42:43;9.56;87.96
71047;SHT31;58703;48.978;8.982;2023-01-01T07:45:11;9.48;88.66
71047;SHT31;58703;48.978;8.982;2023-01-01T07:47:37;9.28;89.09
71047;SHT31;58703;48.978;8.982;2023-01-01T07:50:04;9.56;87.99
71047;SHT31;58703;48.978;8.982;2023-01-01T07:52:31;9.82;87.66
71047;SHT31;58703;48.978;8.982;2023-01-01T07:54:57;9.90;87.20
71047;SHT31;58703;48.978;8.982;2023-01-01T07:57:23;9.85;87.53
71047;SHT31;58703;48.978;8.982;2023-01-01T07:59:48;10.40;85.66
71047;SHT31;58703;48.978;8.982;2023-01-01T08:02:14;10.78;83.92
71047;SHT31;58703;48.978;8.982;2023-01-01T08:04:39;10.89;84.21
71047;SHT31;58703;48.978;8.982;2023-01-01T08:07:06;11.02;83.67
71047;SHT31;58703;48.978;8.982;2023-01-01T08:09:31;11.20;83.09
71047;SHT31;58703;48.978;8.982;2023-01-01T08:11:58;11.32;82.75
71047;SHT31;58703;48.978;8.982;2023-01-01T08:14:24;11.30;82.87
71047;SHT31;58703;48.978;8.982;2023-01-01T08:16:52;11.30;82.64
71047;SHT31;58703;48.978;8.982;2023-01-01T08:19:18;11.46;82.20
71047;SHT31;58703;48.978;8.982;2023-01-01T08:21:44;11.90;80.63
71047;SHT31;58703;48.978;8.982;2023-01-01T08:24:10;12.05;80.00
71047;SHT31;58703;48.978;8.982;2023-01-01T08:26:35;12.44;78.46
71047;SHT31;58703;48.978;8.982;2023-01-01T08:29:04;12.28;79.02
71047;SHT31;58703;48.978;8.982;2023-01-01T08:31:30;12.28;78.99
71047;SHT31;58703;48.978;8.982;2023-01-01T08:33:57;12.39;78.85
71047;SHT31;58703;48.978;8.982;2023-01-01T08:36:24;12.62;78.02
71047;SHT31;58703;48.978;8.982;2023-01-01T08:38:51;12.93;77.09
71047;SHT31;58703;48.978;8.982;2023-01-01T08:41:19;13.06;76.74
71047;SHT31;58703;48.978;8.982;2023-01-01T08:43:44;13.07;76.74
71047;SHT31;58703;48.978;8.982;2023-01-01T08:46:10;13.02;77.19
71047;SHT31;58703;48.978;8.982;2023-01-01T08:48:36;13.19;76.40
71047;SHT31;58703;48.978;8.982;2023-01-01T08:51:02;13.27;76.25
71047;SHT31;58703;48.978;8.982;2023-01-01T08:53:30;13.28;76.29
71047;SHT31;58703;48.978;8.982;2023-01-01T08:55:57;13.36;76.08
71047;SHT31;58703;48.978;8.982;2023-01-01T08:58:23;13.62;74.79
71047;SHT31;58703;48.978;8.982;2023-01-01T09:00:49;13.67;74.71
71047;SHT31;58703;48.978;8.982;2023-01-01T09:03:15;13.88;73.85
71047;SHT31;58703;48.978;8.982;2023-01-01T09:05:40;13.88;74.04
71047;SHT31;58703;48.978;8.982;2023-01-01T09:08:14;14.12;73.27
71047;SHT31;58703;48.978;8.982;2023-01-01T09:10:40;14.32;73.18
71047;SHT31;58703;48.978;8.982;2023-01-01T09:13:13;14.28;73.43
71047;SHT31;58703;48.978;8.982;2023-01-01T09:15:40;14.37;72.65
71047;SHT31;58703;48.978;8.982;2023-01-01T09:18:10;14.43;73.01
71047;SHT31;58703;48.978;8.982;2023-01-01T09:20:37;14.37;73.00
71047;SHT31;58703;48.978;8.982;2023-01-01T09:23:04;14.46;72.66
71047;SHT31;58703;48.978;8.982;2023-01-01T09:25:32;14.40;73.49
71047;SHT31;58703;48.978;8.982;2023-01-01T09:27:59;14.42;73.08
71047;SHT31;58703;48.978;8.982;2023-01-01T09:30:25;14.53;72.78
71047;SHT31;58703;48.978;8.982;2023-01-01T09:32:51;14.56;72.70
71047;SHT31;58703;48.978;8.982;2023-01-01T09:35:17;14.63;72.68
71047;SHT31;58703;48.978;8.982;2023-01-01T09:37:42;14.69;71.66
71047;SHT31;58703;48.978;8.982;2023-01-01T09:43:39;14.87;70.80
71047;SHT31;58703;48.978;8.982;2023-01-01T09:46:11;15.10;70.23
71047;SHT31;58703;48.978;8.982;2023-01-01T09:48:42;15.20;69.07
71047;SHT31;58703;48.978;8.982;2023-01-01T09:51:14;15.46;68.94
71047;SHT31;58703;48.978;8.982;2023-01-01T09:53:50;15.62;68.16
71047;SHT31;58703;48.978;8.982;2023-01-01T09:56:24;15.85;67.38
71047;SHT31;58703;48.978;8.982;2023-01-01T09:58:51;15.86;67.34
71047;SHT31;58703;48.978;8.982;2023-01-01T10:04:31;16.14;66.83
71047;SHT31;58703;48.978;8.982;2023-01-01T10:09:49;16.09;66.80
71047;SHT31;58703;48.978;8.982;2023-01-01T10:15:20;16.03;66.69
71047;SHT31;58703;48.978;8.982;2023-01-01T10:17:51;15.90;66.31
71047;SHT31;58703;48.978;8.982;2023-01-01T10:20:23;16.02;65.99
71047;SHT31;58703;48.978;8.982;2023-01-01T10:22:58;16.07;66.03
71047;SHT31;58703;48.978;8.982;2023-01-01T10:25:27;16.12;66.26
71047;SHT31;58703;48.978;8.982;2023-01-01T10:28:11;16.34;65.64
71047;SHT31;58703;48.978;8.982;2023-01-01T10:30:38;16.48;64.63
71047;SHT31;58703;48.978;8.982;2023-01-01T10:33:11;16.67;64.63
71047;SHT31;58703;48.978;8.982;2023-01-01T10:35:43;16.87;64.11
71047;SHT31;58703;48.978;8.982;2023-01-01T10:38:20;16.63;64.98
71047;SHT31;58703;48.978;8.982;2023-01-01T10:40:46;16.60;66.00
71047;SHT31;58703;48.978;8.982;2023-01-01T10:43:11;16.81;65.46
71047;SHT31;58703;48.978;8.982;2023-01-01T10:45:42;16.81;66.39
71047;SHT31;58703;48.978;8.982;2023-01-01T10:48:19;16.95;66.25
71047;SHT31;58703;48.978;8.982;2023-01-01T10:50:53;17.19;65.85
71047;SHT31;58703;48.978;8.982;2023-01-01T10:53:27;17.21;66.02
71047;SHT31;58703;48.978;8.982;2023-01-01T10:56:05;17.46;64.46
71047;SHT31;58703;48.978;8.982;2023-01-01T10:58:50;17.45;63.32
71047;SHT31;58703;48.978;8.982;2023-01-01T11:01:28;18.07;63.08
71047;SHT31;58703;48.978;8.982;2023-01-01T11:06:35;19.05;60.14
71047;SHT31;58703;48.978;8.982;2023-01-01T11:09:25;19.40;58.88
71047;SHT31;58703;48.978;8.982;2023-01-01T11:11:58;19.40;56.77
71047;SHT31;58703;48.978;8.982;2023-01-01T11:14:28;19.51;56.82
71047;SHT31;58703;48.978;8.982;2023-01-01T11:16:55;20.24;57.11
71047;SHT31;58703;48.978;8.982;2023-01-01T11:19:25;20.49;54.94
71047;SHT31;58703;48.978;8.982;2023-01-01T11:21:52;20.39;56.61
71047;SHT31;58703;48.978;8.982;2023-01-01T11:24:21;19.77;58.75
71047;SHT31;58703;48.978;8.982;2023-01-01T11:26:48;18.66;60.94
71047;SHT31;58703;48.978;8.982;2023-01-01T11:29:26;18.51;62.41
71047;SHT31;58703;48.978;8.982;2023-01-01T11:31:55;18.44;62.14
71047;SHT31;58703;48.978;8.982;2023-01-01T11:34:30;17.93;63.66
71047;SHT31;58703;48.978;8.982;2023-01-01T11:39:43;18.30;63.86
71047;SHT31;58703;48.978;8.982;2023-01-01T11:42:15;18.31;63.08
71047;SHT31;58703;48.978;8.982;2023-01-01T11:44:51;18.48;63.59
71047;SHT31;58703;48.978;8.982;2023-01-01T11:47:38;18.71;64.75
71047;SHT31;58703;48.978;8.982;2023-01-01T11:53:15;19.51;59.76
71047;SHT31;58703;48.978;8.982;2023-01-01T11:55:46;19.30;60.34
71047;SHT31;58703;48.978;8.982;2023-01-01T12:01:21;19.36;62.08
71047;SHT31;58703;48.978;8.982;2023-01-01T12:04:01;19.63;60.92
71047;SHT31;58703;48.978;8.982;2023-01-01T12:06:40;20.01;59.33
71047;SHT31;58703;48.978;8.982;2023-01-01T12:12:01;19.47;58.91
71047;SHT31;58703;48.978;8.982;2023-01-01T12:17:19;20.02;58.78
71047;SHT31;58703;48.978;8.982;2023-01-01T12:20:12;19.90;58.54
71047;SHT31;58703;48.978;8.982;2023-01-01T12:22:40;19.26;59.73
71047;SHT31;58703;48.978;8.982;2023-01-01T12:25:10;18.92;60.65
71047;SHT31;58703;48.978;8.982;2023-01-01T12:31:02;18.81;61.21
71047;SHT31;58703;48.978;8.982;2023-01-01T12:42:19;18.55;59.95
71047;SHT31;58703;48.978;8.982;2023-01-01T12:45:21;18.33;60.97
71047;SHT31;58703;48.978;8.982;2023-01-01T12:48:07;18.40;60.96
71047;SHT31;58703;48.978;8.982;2023-01-01T12:59:35;18.81;60.51
71047;SHT31;58703;48.978;8.982;2023-01-01T13:02:26;18.96;60.12
71047;SHT31;58703;48.978;8.982;2023-01-01T13:05:14;19.17;58.83
71047;SHT31;58703;48.978;8.982;2023-01-01T13:07:44;19.07;58.34
71047;SHT31;58703;48.978;8.982;2023-01-01T13:10:33;19.10;60.18
71047;SHT31;58703;48.978;8.982;2023-01-01T13:13:00;19.63;58.74
71047;SHT31;58703;48.978;8.982;2023-01-01T13:18:27;19.45;58.77
71047;SHT31;58703;48.978;8.982;2023-01-01T13:20:57;18.69;59.47
71047;SHT31;58703;48.978;8.982;2023-01-01T13:34:33;18.23;59.73
71047;SHT31;58703;48.978;8.982;2023-01-01T13:45:05;18.31;60.00
71047;SHT31;58703;48.978;8.982;2023-01-01T13:56:30;17.67;61.84
71047;SHT31;58703;48.978;8.982;2023-01-01T14:02:25;17.59;63.39
71047;SHT31;58703;48.978;8.982;2023-01-01T14:07:38;17.28;63.51
71047;SHT31;58703;48.978;8.982;2023-01-01T14:12:42;18.18;61.54
71047;SHT31;58703;48.978;8.982;2023-01-01T14:15:27;17.79;63.02
71047;SHT31;58703;48.978;8.982;2023-01-01T14:17:54;17.47;63.44
71047;SHT31;58703;48.978;8.982;2023-01-01T14:20:29;17.66;61.66
71047;SHT31;58703;48.978;8.982;2023-01-01T14:23:00;17.72;61.56
71047;SHT31;58703;48.978;8.982;2023-01-01T14:25:28;17.50;61.54
71047;SHT31;58703;48.978;8.982;2023-01-01T14:27:56;17.56;63.84
71047;SHT31;58703;48.978;8.982;2023-01-01T14:30:23;17.82;66.90
71047;SHT31;58703;48.978;8.982;2023-01-01T14:32:56;17.79;64.30
71047;SHT31;58703;48.978;8.982;2023-01-01T14:35:22;17.76;66.55
71047;SHT31;58703;48.978;8.982;2023-01-01T14:37:50;17.60;67.01
71047;SHT31;58703;48.978;8.982;2023-01-01T14:40:21;17.26;68.40
71047;SHT31;58703;48.978;8.982;2023-01-01T14:43:05;17.45;68.37
71047;SHT31;58703;48.978;8.982;2023-01-01T14:45:35;17.26;68.42
71047;SHT31;58703;48.978;8.982;2023-01-01T14:48:00;17.19;68.88
71047;SHT31;58703;48.978;8.982;2023-01-01T14:50:31;17.21;67.71
71047;SHT31;58703;48.978;8.982;2023-01-01T14:53:13;17.02;68.21
71047;SHT31;58703;48.978;8.982;2023-01-01T14:55:43;16.98;68.87
71047;SHT31;58703;48.978;8.982;2023-01-01T14:58:15;16.98;70.75
71047;SHT31;58703;48.978;8.982;2023-01-01T15:00:41;16.58;68.73
71047;SHT31;58703;48.978;8.982;2023-01-01T15:03:15;16.33;71.82
71047;SHT31;58703;48.978;8.982;2023-01-01T15:05:42;16.41;70.93
71047;SHT31;58703;48.978;8.982;2023-01-01T15:08:22;15.66;72.14
71047;SHT31;58703;48.978;8.982;2023-01-01T15:10:48;15.34;72.48
71047;SHT31;58703;48.978;8.982;2023-01-01T15:13:23;15.42;73.68
71047;SHT31;58703;48.978;8.982;2023-01-01T15:15:55;15.30;74.23
71047;SHT31;58703;48.978;8.982;2023-01-01T15:18:41;15.30;75.47
71047;SHT31;58703;48.978;8.982;2023-01-01T15:23:42;14.84;76.35
71047;SHT31;58703;48.978;8.982;2023-01-01T15:26:22;14.28;76.58
71047;SHT31;58703;48.978;8.982;2023-01-01T15:28:49;14.08;76.12
71047;SHT31;58703;48.978;8.982;2023-01-01T15:31:15;13.97;78.15
71047;SHT31;58703;48.978;8.982;2023-01-01T15:33:46;13.61;80.05
71047;SHT31;58703;48.978;8.982;2023-01-01T15:36:14;13.27;80.91
71047;SHT31;58703;48.978;8.982;2023-01-01T15:38:46;13.07;81.43
71047;SHT31;58703;48.978;8.982;2023-01-01T15:41:39;12.97;81.30
71047;SHT31;58703;48.978;8.982;2023-01-01T15:44:27;13.13;82.35
71047;SHT31;58703;48.978;8.982;2023-01-01T15:47:03;13.03;82.36
71047;SHT31;58703;48.978;8.982;2023-01-01T15:49:29;12.82;83.45
71047;SHT31;58703;48.978;8.982;2023-01-01T15:51:58;12.69;82.65
71047;SHT31;58703;48.978;8.982;2023-01-01T15:54:25;12.62;83.46
71047;SHT31;58703;48.978;8.982;2023-01-01T15:56:51;12.50;82.44
71047;SHT31;58703;48.978;8.982;2023-01-01T15:59:25;12.39;83.81
71047;SHT31;58703;48.978;8.982;2023-01-01T16:02:01;12.31;83.97
71047;SHT31;58703;48.978;8.982;2023-01-01T16:04:28;12.25;86.42
71047;SHT31;58703;48.978;8.982;2023-01-01T16:06:56;12.10;84.73
71047;SHT31;58703;48.978;8.982;2023-01-01T16:09:21;11.54;85.11
71047;SHT31;58703;48.978;8.982;2023-01-01T16:11:52;11.54;85.35
71047;SHT31;58703;48.978;8.982;2023-01-01T16:14:19;11.30;85.60
71047;SHT31;58703;48.978;8.982;2023-01-01T16:16:49;11.13;86.00
71047;SHT31;58703;48.978;8.982;2023-01-01T16:19:16;10.91;86.67
71047;SHT31;58703;48.978;8.982;2023-01-01T16:21:42;10.81;87.81
71047;SHT31;58703;48.978;8.982;2023-01-01T16:24:15;10.88;87.97
71047;SHT31;58703;48.978;8.982;2023-01-01T16:26:42;10.73;88.34
71047;SHT31;58703;48.978;8.982;2023-01-01T16:29:08;10.68;88.52
71047;SHT31;58703;48.978;8.982;2023-01-01T16:31:33;10.54;89.20
71047;SHT31;58703;48.978;8.982;2023-01-01T16:33:59;10.36;89.80
71047;SHT31;58703;48.978;8.982;2023-01-01T16:36:27;10.27;90.36
71047;SHT31;58703;48.978;8.982;2023-01-01T16:38:54;10.21;90.49
71047;SHT31;58703;48.978;8.982;2023-01-01T16:41:20;10.31;90.01
71047;SHT31;58703;48.978;8.982;2023-01-01T16:43:51;10.30;89.29
71047;SHT31;58703;48.978;8.982;2023-01-01T16:46:17;10.40;89.39
71047;SHT31;58703;48.978;8.982;2023-01-01T16:48:43;10.18;89.41
71047;SHT31;58703;48.978;8.982;2023-01-01T16:51:27;9.91;89.98
71047;SHT31;58703;48.978;8.982;2023-01-01T16:53:53;9.66;90.65
71047;SHT31;58703;48.978;8.982;2023-01-01T16:56:18;9.49;91.56
71047;SHT31;58703;48.978;8.982;2023-01-01T16:58:45;9.38;91.83
71047;SHT31;58703;48.978;8.982;2023-01-01T17:01:10;9.34;92.43
71047;SHT31;58703;48.978;8.982;2023-01-01T17:03:36;9.28;92.66
71047;SHT31;58703;48.978;8.982;2023-01-01T17:06:07;9.31;92.21
71047;SHT31;58703;48.978;8.982;2023-01-01T17:08:33;9.19;92.02
71047;SHT31;58703;48.978;8.982;2023-01-01T17:11:11;9.03;91.62
71047;SHT31;58703;48.978;8.982;2023-01-01T17:13:44;8.87;91.88
71047;SHT31;58703;48.978;8.982;2023-01-01T17:16:11;8.71;92.56
71047;SHT31;58703;48.978;8.982;2023-01-01T17:18:37;8.63;93.24
71047;SHT31;58703;48.978;8.982;2023-01-01T17:21:07;8.60;93.48
71047;SHT31;58703;48.978;8.982;2023-01-01T17:23:35;8.39;94.03
71047;SHT31;58703;48.978;8.982;2023-01-01T17:26:20;8.54;94.31
71047;SHT31;58703;48.978;8.982;2023-01-01T17:28:47;8.54;94.11
71047;SHT31;58703;48.978;8.982;2023-01-01T17:31:15;8.46;93.90
71047;SHT31;58703;48.978;8.982;2023-01-01T17:33:41;8.34;94.08
71047;SHT31;58703;48.978;8.982;2023-01-01T17:36:09;8.28;93.96
71047;SHT31;58703;48.978;8.982;2023-01-01T17:38:35;8.06;94.40
71047;SHT31;58703;48.978;8.982;2023-01-01T17:41:12;8.07;94.52
71047;SHT31;58703;48.978;8.982;2023-01-01T17:43:43;8.05;94.73
71047;SHT31;58703;48.978;8.982;2023-01-01T17:46:12;7.98;95.06
71047;SHT31;58703;48.978;8.982;2023-01-01T17:48:40;8.03;94.93
71047;SHT31;58703;48.978;8.982;2023-01-01T17:51:06;7.95;95.39
71047;SHT31;58703;48.978;8.982;2023-01-01T17:53:31;8.05;95.27